sensor_id;sensor_type;location;lat;lon;timestamp;pressure;altitude;pressure_sealevel;temperature;humidity
77041;BME280;65974;42.664;23.264;2023-02-23T00:01:11;94216.41;;;5.48;64.43
77041;BME280;65974;42.664;23.264;2023-02-23T00:03:37;94216.19;;;5.38;65.08
77041;BME280;65974;42.664;23.264;2023-02-23T00:06:03;94220.78;;;5.41;65.25
77041;BME280;65974;42.664;23.264;2023-02-23T00:08:28;94217.94;;;5.30;65.36
77041;BME280;65974;42.664;23.264;2023-02-23T00:10:54;94222.06;;;5.28;65.38
77041;BME280;65974;42.664;23.264;2023-02-23T00:13:22;94223.22;;;5.30;64.90
77041;BME280;65974;42.664;23.264;2023-02-23T00:15:48;94217.94;;;5.30;65.08
77041;BME280;65974;42.664;23.264;2023-02-23T00:18:13;94229.47;;;5.41;65.07
77041;BME280;65974;42.664;23.264;2023-02-23T00:20:39;94219.25;;;5.40;65.09
77041;BME280;65974;42.664;23.264;2023-02-23T00:23:09;94222.94;;;5.35;65.80
77041;BME280;65974;42.664;23.264;2023-02-23T00:25:36;94228.69;;;5.41;65.64
77041;BME280;65974;42.664;23.264;2023-02-23T00:28:03;94232.47;;;5.40;65.28
77041;BME280;65974;42.664;23.264;2023-02-23T00:30:31;94232.81;;;5.38;65.83
77041;BME280;65974;42.664;23.264;2023-02-23T00:32:56;94221.28;;;5.27;66.48
77041;BME280;65974;42.664;23.264;2023-02-23T00:35:22;94229.34;;;5.34;67.18
77041;BME280;65974;42.664;23.264;2023-02-23T00:37:49;94233.91;;;5.37;67.65
77041;BME280;65974;42.664;23.264;2023-02-23T00:40:16;94227.88;;;5.37;67.30
77041;BME280;65974;42.664;23.264;2023-02-23T00:42:45;94223.00;;;5.39;67.39
77041;BME280;65974;42.664;23.264;2023-02-23T00:45:12;94227.00;;;5.52;66.73
77041;BME280;65974;42.664;23.264;2023-02-23T00:47:42;94227.66;;;5.45;67.31
77041;BME280;65974;42.664;23.264;2023-02-23T00:50:13;94230.59;;;5.40;67.11
77041;BME280;65974;42.664;23.264;2023-02-23T00:52:40;94224.69;;;5.47;66.80
77041;BME280;65974;42.664;23.264;2023-02-23T00:57:51;94221.28;;;5.27;67.60
77041;BME280;65974;42.664;23.264;2023-02-23T01:00:17;94217.88;;;5.27;67.57
77041;BME280;65974;42.664;23.264;2023-02-23T01:02:46;94220.88;;;5.25;67.61
77041;BME280;65974;42.664;23.264;2023-02-23T01:05:12;94216.06;;;5.31;67.27
77041;BME280;65974;42.664;23.264;2023-02-23T01:07:39;94222.47;;;5.30;67.30
77041;BME280;65974;42.664;23.264;2023-02-23T01:10:05;94225.09;;;5.30;66.83
77041;BME280;65974;42.664;23.264;2023-02-23T01:12:46;94226.25;;;5.32;66.42
77041;BME280;65974;42.664;23.264;2023-02-23T01:15:12;94230.84;;;5.35;66.26
77041;BME280;65974;42.664;23.264;2023-02-23T01:17:37;94232.19;;;5.45;65.81
77041;BME280;65974;42.664;23.264;2023-02-23T01:20:03;94226.13;;;5.44;65.85
77041;BME280;65974;42.664;23.264;2023-02-23T01:22:39;94221.84;;;5.36;66.65
77041;BME280;65974;42.664;23.264;2023-02-23T01:25:06;94223.63;;;5.32;66.59
77041;BME280;65974;42.664;23.264;2023-02-23T01:27:31;94217.19;;;5.30;66.97
77041;BME280;65974;42.664;23.264;2023-02-23T01:29:59;94226.91;;;5.26;67.25
77041;BME280;65974;42.664;23.264;2023-02-23T01:32:25;94225.03;;;5.26;67.44
77041;BME280;65974;42.664;23.264;2023-02-23T01:34:50;94221.00;;;5.32;67.09
77041;BME280;65974;42.664;23.264;2023-02-23T01:37:16;94220.94;;;5.29;67.16
77041;BME280;65974;42.664;23.264;2023-02-23T01:39:41;94218.91;;;5.22;67.68
77041;BME280;65974;42.664;23.264;2023-02-23T01:42:11;94218.09;;;5.18;67.52
77041;BME280;65974;42.664;23.264;2023-02-23T01:47:04;94221.97;;;5.05;67.80
77041;BME280;65974;42.664;23.264;2023-02-23T01:49:32;94218.25;;;5.06;67.97
77041;BME280;65974;42.664;23.264;2023-02-23T01:54:27;94218.34;;;4.94;68.40
77041;BME280;65974;42.664;23.264;2023-02-23T01:56:57;94212.94;;;4.87;68.84
77041;BME280;65974;42.664;23.264;2023-02-23T01:59:33;94215.50;;;4.84;68.93
77041;BME280;65974;42.664;23.264;2023-02-23T02:02:01;94214.25;;;4.78;68.92
77041;BME280;65974;42.664;23.264;2023-02-23T02:04:29;94214.84;;;4.71;68.89
77041;BME280;65974;42.664;23.264;2023-02-23T02:06:57;94217.16;;;4.72;69.11
77041;BME280;65974;42.664;23.264;2023-02-23T02:09:26;94213.38;;;4.54;69.86
77041;BME280;65974;42.664;23.264;2023-02-23T02:11:52;94212.00;;;4.60;69.55
77041;BME280;65974;42.664;23.264;2023-02-23T02:14:24;94210.13;;;4.61;69.54
77041;BME280;65974;42.664;23.264;2023-02-23T02:25:22;94204.53;;;4.28;70.70
77041;BME280;65974;42.664;23.264;2023-02-23T02:41:35;94200.69;;;4.25;70.79
77041;BME280;65974;42.664;23.264;2023-02-23T02:44:28;94202.47;;;4.21;70.97
77041;BME280;65974;42.664;23.264;2023-02-23T02:47:00;94211.59;;;4.24;71.19
77041;BME280;65974;42.664;23.264;2023-02-23T02:49:31;94204.53;;;4.28;70.97
77041;BME280;65974;42.664;23.264;2023-02-23T02:55:24;94209.09;;;4.31;70.84
77041;BME280;65974;42.664;23.264;2023-02-23T02:57:26;94205.13;;;4.21;71.32
77041;BME280;65974;42.664;23.264;2023-02-23T02:59:52;94206.22;;;4.20;71.37
77041;BME280;65974;42.664;23.264;2023-02-23T03:02:38;94205.53;;;4.23;71.36
77041;BME280;65974;42.664;23.264;2023-02-23T03:05:27;94210.47;;;4.25;71.17
77041;BME280;65974;42.664;23.264;2023-02-23T03:11:33;94209.63;;;4.21;71.12
77041;BME280;65974;42.664;23.264;2023-02-23T03:14:41;94207.06;;;4.24;71.04
77041;BME280;65974;42.664;23.264;2023-02-23T03:17:44;94208.25;;;4.27;70.45
77041;BME280;65974;42.664;23.264;2023-02-23T03:20:44;94209.84;;;4.31;70.61
77041;BME280;65974;42.664;23.264;2023-02-23T03:23:55;94217.69;;;4.28;70.65
77041;BME280;65974;42.664;23.264;2023-02-23T03:26:50;94219.50;;;4.24;70.84
77041;BME280;65974;42.664;23.264;2023-02-23T03:32:29;94222.19;;;4.27;70.72
77041;BME280;65974;42.664;23.264;2023-02-23T03:35:20;94225.59;;;4.28;70.28
77041;BME280;65974;42.664;23.264;2023-02-23T03:38:15;94226.88;;;4.18;70.74
77041;BME280;65974;42.664;23.264;2023-02-23T03:41:01;94234.59;;;4.11;71.23
77041;BME280;65974;42.664;23.264;2023-02-23T03:43:51;94231.31;;;3.99;71.55
77041;BME280;65974;42.664;23.264;2023-02-23T03:46:37;94232.00;;;3.96;71.75
77041;BME280;65974;42.664;23.264;2023-02-23T03:49:23;94231.22;;;3.95;71.31
77041;BME280;65974;42.664;23.264;2023-02-23T03:52:16;94239.19;;;3.99;71.33
77041;BME280;65974;42.664;23.264;2023-02-23T03:55:12;94232.75;;;3.96;71.21
77041;BME280;65974;42.664;23.264;2023-02-23T03:57:59;94241.25;;;3.89;71.65
77041;BME280;65974;42.664;23.264;2023-02-23T04:00:46;94241.84;;;3.83;72.09
77041;BME280;65974;42.664;23.264;2023-02-23T04:03:33;94242.16;;;3.81;72.36
77041;BME280;65974;42.664;23.264;2023-02-23T04:06:21;94238.88;;;3.84;72.27
77041;BME280;65974;42.664;23.264;2023-02-23T04:09:07;94234.03;;;3.86;72.21
77041;BME280;65974;42.664;23.264;2023-02-23T04:15:26;94234.84;;;3.75;72.33
77041;BME280;65974;42.664;23.264;2023-02-23T04:17:52;94237.06;;;3.73;72.46
77041;BME280;65974;42.664;23.264;2023-02-23T04:20:18;94238.34;;;3.63;73.17
77041;BME280;65974;42.664;23.264;2023-02-23T04:22:44;94235.91;;;3.70;72.73
77041;BME280;65974;42.664;23.264;2023-02-23T04:25:10;94240.13;;;3.75;72.46
77041;BME280;65974;42.664;23.264;2023-02-23T04:27:36;94237.75;;;3.70;72.91
77041;BME280;65974;42.664;23.264;2023-02-23T04:30:01;94235.28;;;3.61;73.30
77041;BME280;65974;42.664;23.264;2023-02-23T04:32:28;94236.44;;;3.48;74.02
77041;BME280;65974;42.664;23.264;2023-02-23T04:34:53;94240.44;;;3.42;74.49
77041;BME280;65974;42.664;23.264;2023-02-23T04:37:19;94238.22;;;3.44;74.48
77041;BME280;65974;42.664;23.264;2023-02-23T04:39:44;94240.44;;;3.42;74.27
77041;BME280;65974;42.664;23.264;2023-02-23T04:42:14;94238.66;;;3.46;74.07
77041;BME280;65974;42.664;23.264;2023-02-23T04:44:39;94243.91;;;3.46;73.92
77041;BME280;65974;42.664;23.264;2023-02-23T04:47:04;94237.19;;;3.33;73.92
77041;BME280;65974;42.664;23.264;2023-02-23T04:49:30;94242.25;;;3.26;74.49
77041;BME280;65974;42.664;23.264;2023-02-23T04:51:55;94240.03;;;3.28;74.49
77041;BME280;65974;42.664;23.264;2023-02-23T04:54:21;94245.94;;;3.37;74.19
77041;BME280;65974;42.664;23.264;2023-02-23T04:56:46;94238.22;;;3.44;73.97
77041;BME280;65974;42.664;23.264;2023-02-23T04:59:12;94238.47;;;3.39;73.74
77041;BME280;65974;42.664;23.264;2023-02-23T05:01:37;94232.41;;;3.23;73.74
77041;BME280;65974;42.664;23.264;2023-02-23T05:04:03;94240.28;;;3.23;74.38
77041;BME280;65974;42.664;23.264;2023-02-23T05:06:29;94239.38;;;3.31;74.01
77041;BME280;65974;42.664;23.264;2023-02-23T05:08:54;94227.75;;;3.32;74.46
77041;BME280;65974;42.664;23.264;2023-02-23T05:11:20;94240.56;;;3.34;74.85
77041;BME280;65974;42.664;23.264;2023-02-23T05:13:45;94238.47;;;3.39;74.39
77041;BME280;65974;42.664;23.264;2023-02-23T05:16:10;94238.72;;;3.34;74.84
77041;BME280;65974;42.664;23.264;2023-02-23T05:18:36;94241.59;;;3.29;74.39
77041;BME280;65974;42.664;23.264;2023-02-23T05:21:03;94242.66;;;3.28;74.94
77041;BME280;65974;42.664;23.264;2023-02-23T05:23:30;94247.03;;;3.36;73.91
77041;BME280;65974;42.664;23.264;2023-02-23T05:25:59;94246.00;;;3.25;74.51
77041;BME280;65974;42.664;23.264;2023-02-23T05:28:25;94248.34;;;3.30;74.60
77041;BME280;65974;42.664;23.264;2023-02-23T05:30:50;94253.31;;;3.32;74.04
77041;BME280;65974;42.664;23.264;2023-02-23T05:33:16;94257.50;;;3.21;74.85
77041;BME280;65974;42.664;23.264;2023-02-23T05:35:41;94258.72;;;3.23;74.54
77041;BME280;65974;42.664;23.264;2023-02-23T05:38:07;94257.72;;;3.28;74.54
77041;BME280;65974;42.664;23.264;2023-02-23T05:40:32;94267.03;;;3.25;74.77
77041;BME280;65974;42.664;23.264;2023-02-23T05:42:58;94263.72;;;3.28;75.35
77041;BME280;65974;42.664;23.264;2023-02-23T05:45:24;94270.31;;;3.34;75.08
77041;BME280;65974;42.664;23.264;2023-02-23T05:47:49;94275.31;;;3.39;74.99
77041;BME280;65974;42.664;23.264;2023-02-23T05:50:16;94274.66;;;3.42;75.33
77041;BME280;65974;42.664;23.264;2023-02-23T05:52:41;94283.47;;;3.50;75.05
77041;BME280;65974;42.664;23.264;2023-02-23T05:55:09;94281.03;;;3.57;75.03
77041;BME280;65974;42.664;23.264;2023-02-23T05:57:36;94285.34;;;3.49;74.65
77041;BME280;65974;42.664;23.264;2023-02-23T06:00:01;94292.72;;;3.44;75.43
77041;BME280;65974;42.664;23.264;2023-02-23T06:02:27;94286.59;;;3.40;75.03
77041;BME280;65974;42.664;23.264;2023-02-23T06:04:53;94292.50;;;3.49;74.97
77041;BME280;65974;42.664;23.264;2023-02-23T06:07:19;94290.03;;;3.56;75.29
77041;BME280;65974;42.664;23.264;2023-02-23T06:09:45;94290.50;;;3.73;74.41
77041;BME280;65974;42.664;23.264;2023-02-23T06:12:10;94298.16;;;3.78;74.66
77041;BME280;65974;42.664;23.264;2023-02-23T06:14:36;94297.25;;;3.86;74.46
77041;BME280;65974;42.664;23.264;2023-02-23T06:17:01;94295.72;;;4.01;74.01
77041;BME280;65974;42.664;23.264;2023-02-23T06:19:26;94298.63;;;4.12;73.81
77041;BME280;65974;42.664;23.264;2023-02-23T06:21:52;94306.28;;;4.17;73.36
77041;BME280;65974;42.664;23.264;2023-02-23T06:24:18;94300.31;;;4.20;73.39
77041;BME280;65974;42.664;23.264;2023-02-23T06:26:44;94309.59;;;4.29;72.92
77041;BME280;65974;42.664;23.264;2023-02-23T06:29:10;94311.72;;;4.39;72.71
77041;BME280;65974;42.664;23.264;2023-02-23T06:31:36;94310.44;;;4.49;72.00
77041;BME280;65974;42.664;23.264;2023-02-23T06:34:02;94310.78;;;4.63;71.68
77041;BME280;65974;42.664;23.264;2023-02-23T06:36:27;94313.91;;;4.68;71.32
77041;BME280;65974;42.664;23.264;2023-02-23T06:38:57;94312.63;;;4.78;71.34
77041;BME280;65974;42.664;23.264;2023-02-23T06:41:23;94315.69;;;4.80;71.53
77041;BME280;65974;42.664;23.264;2023-02-23T06:43:48;94311.00;;;4.89;71.09
77041;BME280;65974;42.664;23.264;2023-02-23T06:46:14;94319.13;;;5.00;70.94
77041;BME280;65974;42.664;23.264;2023-02-23T06:48:40;94315.47;;;5.04;70.71
77041;BME280;65974;42.664;23.264;2023-02-23T06:51:06;94311.31;;;5.22;69.56
77041;BME280;65974;42.664;23.264;2023-02-23T06:53:32;94326.06;;;5.23;69.83
77041;BME280;65974;42.664;23.264;2023-02-23T06:55:58;94318.56;;;5.25;69.57
77041;BME280;65974;42.664;23.264;2023-02-23T06:58:23;94322.19;;;5.36;69.25
77041;BME280;65974;42.664;23.264;2023-02-23T07:00:49;94317.84;;;5.47;69.48
77041;BME280;65974;42.664;23.264;2023-02-23T07:03:14;94312.38;;;5.56;68.54
77041;BME280;65974;42.664;23.264;2023-02-23T07:05:40;94315.16;;;5.63;68.59
77041;BME280;65974;42.664;23.264;2023-02-23T07:08:05;94322.91;;;5.75;68.01
77041;BME280;65974;42.664;23.264;2023-02-23T07:10:32;94312.34;;;5.75;67.80
77041;BME280;65974;42.664;23.264;2023-02-23T07:12:57;94321.47;;;5.78;68.08
77041;BME280;65974;42.664;23.264;2023-02-23T07:15:23;94321.78;;;5.92;67.50
77041;BME280;65974;42.664;23.264;2023-02-23T07:17:49;94321.06;;;5.95;67.66
77041;BME280;65974;42.664;23.264;2023-02-23T07:20:17;94326.66;;;6.12;66.94
77041;BME280;65974;42.664;23.264;2023-02-23T07:22:43;94323.75;;;6.17;66.73
77041;BME280;65974;42.664;23.264;2023-02-23T07:25:09;94322.56;;;6.15;66.62
77041;BME280;65974;42.664;23.264;2023-02-23T07:27:35;94316.22;;;6.19;66.34
77041;BME280;65974;42.664;23.264;2023-02-23T07:30:00;94313.84;;;6.37;65.92
77041;BME280;65974;42.664;23.264;2023-02-23T07:32:28;94311.38;;;6.48;65.66
77041;BME280;65974;42.664;23.264;2023-02-23T07:34:54;94314.84;;;6.52;65.98
77041;BME280;65974;42.664;23.264;2023-02-23T07:37:19;94307.78;;;6.59;65.62
77041;BME280;65974;42.664;23.264;2023-02-23T07:39:45;94307.03;;;6.59;65.37
77041;BME280;65974;42.664;23.264;2023-02-23T07:42:11;94320.91;;;6.75;64.81
77041;BME280;65974;42.664;23.264;2023-02-23T07:44:37;94309.13;;;6.98;64.26
77041;BME280;65974;42.664;23.264;2023-02-23T07:47:03;94307.72;;;7.04;63.30
77041;BME280;65974;42.664;23.264;2023-02-23T07:49:28;94307.38;;;7.10;63.43
77041;BME280;65974;42.664;23.264;2023-02-23T07:51:55;94307.47;;;7.13;62.98
77041;BME280;65974;42.664;23.264;2023-02-23T07:54:20;94302.97;;;7.17;63.48
77041;BME280;65974;42.664;23.264;2023-02-23T07:56:46;94314.75;;;7.20;62.82
77041;BME280;65974;42.664;23.264;2023-02-23T07:59:12;94303.38;;;7.19;62.72
77041;BME280;65974;42.664;23.264;2023-02-23T08:01:38;94302.38;;;7.31;62.84
77041;BME280;65974;42.664;23.264;2023-02-23T08:04:04;94312.56;;;7.29;62.37
77041;BME280;65974;42.664;23.264;2023-02-23T08:06:30;94311.13;;;7.35;61.96
77041;BME280;65974;42.664;23.264;2023-02-23T08:08:58;94302.56;;;7.45;61.78
77041;BME280;65974;42.664;23.264;2023-02-23T08:11:24;94295.94;;;7.61;61.24
77041;BME280;65974;42.664;23.264;2023-02-23T08:13:53;94298.53;;;7.91;60.61
77041;BME280;65974;42.664;23.264;2023-02-23T08:16:18;94300.59;;;8.05;59.93
77041;BME280;65974;42.664;23.264;2023-02-23T08:18:44;94297.63;;;8.13;59.24
77041;BME280;65974;42.664;23.264;2023-02-23T08:21:10;94296.31;;;8.33;58.34
77041;BME280;65974;42.664;23.264;2023-02-23T08:23:35;94297.41;;;8.29;57.71
77041;BME280;65974;42.664;23.264;2023-02-23T08:26:03;94314.41;;;8.24;58.50
77041;BME280;65974;42.664;23.264;2023-02-23T08:28:29;94306.22;;;8.36;57.68
77041;BME280;65974;42.664;23.264;2023-02-23T08:30:54;94306.22;;;8.36;58.27
77041;BME280;65974;42.664;23.264;2023-02-23T08:33:20;94301.03;;;8.54;57.47
77041;BME280;65974;42.664;23.264;2023-02-23T08:35:46;94302.16;;;8.49;57.67
77041;BME280;65974;42.664;23.264;2023-02-23T08:38:11;94302.56;;;8.51;57.08
77041;BME280;65974;42.664;23.264;2023-02-23T08:40:37;94302.25;;;8.60;56.70
77041;BME280;65974;42.664;23.264;2023-02-23T08:43:02;94307.81;;;8.95;56.39
77041;BME280;65974;42.664;23.264;2023-02-23T08:45:28;94306.06;;;9.17;55.25
77041;BME280;65974;42.664;23.264;2023-02-23T08:47:54;94295.09;;;9.25;55.11
77041;BME280;65974;42.664;23.264;2023-02-23T08:50:20;94303.06;;;9.29;55.21
77041;BME280;65974;42.664;23.264;2023-02-23T08:52:45;94297.47;;;9.41;54.95
77041;BME280;65974;42.664;23.264;2023-02-23T08:55:11;94300.16;;;9.52;54.11
77041;BME280;65974;42.664;23.264;2023-02-23T08:57:38;94298.25;;;9.52;54.03
77041;BME280;65974;42.664;23.264;2023-02-23T09:00:04;94294.84;;;9.59;54.35
77041;BME280;65974;42.664;23.264;2023-02-23T09:02:39;94297.06;;;9.39;54.01
77041;BME280;65974;42.664;23.264;2023-02-23T09:05:06;94295.13;;;9.32;54.14
77041;BME280;65974;42.664;23.264;2023-02-23T09:07:31;94303.13;;;9.32;54.51
77041;BME280;65974;42.664;23.264;2023-02-23T09:09:57;94295.88;;;9.33;54.09
77041;BME280;65974;42.664;23.264;2023-02-23T09:12:23;94290.22;;;9.38;54.31
77041;BME280;65974;42.664;23.264;2023-02-23T09:14:49;94291.13;;;9.67;53.27
77041;BME280;65974;42.664;23.264;2023-02-23T09:17:18;94291.19;;;9.95;52.70
77041;BME280;65974;42.664;23.264;2023-02-23T09:19:44;94289.72;;;10.11;52.09
77041;BME280;65974;42.664;23.264;2023-02-23T09:22:09;94295.50;;;10.49;54.38
77041;BME280;65974;42.664;23.264;2023-02-23T09:24:34;94292.06;;;11.05;50.87
77041;BME280;65974;42.664;23.264;2023-02-23T09:27:00;94293.56;;;11.20;49.90
77041;BME280;65974;42.664;23.264;2023-02-23T09:29:25;94292.81;;;11.05;49.95
77041;BME280;65974;42.664;23.264;2023-02-23T09:31:51;94296.22;;;11.23;49.12
77041;BME280;65974;42.664;23.264;2023-02-23T09:34:20;94294.25;;;11.45;49.01
77041;BME280;65974;42.664;23.264;2023-02-23T09:36:45;94300.34;;;11.49;48.08
77041;BME280;65974;42.664;23.264;2023-02-23T09:39:10;94298.09;;;11.30;48.52
77041;BME280;65974;42.664;23.264;2023-02-23T09:50:30;94294.47;;;12.58;45.94
77041;BME280;65974;42.664;23.264;2023-02-23T09:53:06;94292.06;;;12.74;45.39
77041;BME280;65974;42.664;23.264;2023-02-23T09:55:37;94285.03;;;12.94;45.17
77041;BME280;65974;42.664;23.264;2023-02-23T09:58:07;94288.72;;;13.11;44.77
77041;BME280;65974;42.664;23.264;2023-02-23T10:00:45;94278.13;;;13.38;44.20
77041;BME280;65974;42.664;23.264;2023-02-23T10:03:24;94281.66;;;13.28;44.01
77041;BME280;65974;42.664;23.264;2023-02-23T10:05:54;94279.66;;;13.39;43.92
77041;BME280;65974;42.664;23.264;2023-02-23T10:08:31;94284.97;;;13.05;43.90
77041;BME280;65974;42.664;23.264;2023-02-23T10:11:09;94284.19;;;13.01;44.23
77041;BME280;65974;42.664;23.264;2023-02-23T10:13:54;94276.63;;;13.37;43.97
77041;BME280;65974;42.664;23.264;2023-02-23T10:16:44;94268.94;;;13.39;43.51
77041;BME280;65974;42.664;23.264;2023-02-23T10:19:19;94265.28;;;13.59;43.53
77041;BME280;65974;42.664;23.264;2023-02-23T10:21:55;94268.13;;;13.42;43.15
77041;BME280;65974;42.664;23.264;2023-02-23T10:24:29;94272.09;;;13.64;43.13
77041;BME280;65974;42.664;23.264;2023-02-23T10:27:21;94262.19;;;13.61;43.20
77041;BME280;65974;42.664;23.264;2023-02-23T10:29:53;94258.47;;;13.85;43.03
77041;BME280;65974;42.664;23.264;2023-02-23T10:32:44;94257.19;;;13.96;42.65
77041;BME280;65974;42.664;23.264;2023-02-23T10:35:15;94257.63;;;13.91;42.52
77041;BME280;65974;42.664;23.264;2023-02-23T10:37:41;94253.28;;;13.71;42.49
77041;BME280;65974;42.664;23.264;2023-02-23T10:40:14;94252.13;;;13.72;43.17
77041;BME280;65974;42.664;23.264;2023-02-23T10:42:40;94243.44;;;13.94;42.44
77041;BME280;65974;42.664;23.264;2023-02-23T10:45:13;94240.69;;;13.98;42.29
77041;BME280;65974;42.664;23.264;2023-02-23T10:47:59;94240.97;;;14.07;41.89
77041;BME280;65974;42.664;23.264;2023-02-23T10:50:26;94230.97;;;14.38;41.75
77041;BME280;65974;42.664;23.264;2023-02-23T10:52:57;94236.19;;;14.71;41.24
77041;BME280;65974;42.664;23.264;2023-02-23T10:55:28;94225.22;;;14.86;40.50
77041;BME280;65974;42.664;23.264;2023-02-23T10:58:20;94222.41;;;15.16;40.31
77041;BME280;65974;42.664;23.264;2023-02-23T11:03:25;94217.34;;;14.98;40.18
77041;BME280;65974;42.664;23.264;2023-02-23T11:05:51;94211.91;;;15.02;40.15
77041;BME280;65974;42.664;23.264;2023-02-23T11:11:06;94209.66;;;15.43;39.33
77041;BME280;65974;42.664;23.264;2023-02-23T11:13:42;94213.22;;;15.56;39.11
77041;BME280;65974;42.664;23.264;2023-02-23T11:16:14;94215.81;;;15.40;38.97
77041;BME280;65974;42.664;23.264;2023-02-23T11:18:43;94205.06;;;15.40;38.64
77041;BME280;65974;42.664;23.264;2023-02-23T11:21:21;94198.03;;;15.49;38.82
77041;BME280;65974;42.664;23.264;2023-02-23T11:23:49;94198.69;;;15.73;38.77
77041;BME280;65974;42.664;23.264;2023-02-23T11:26:20;94192.44;;;15.96;38.02
77041;BME280;65974;42.664;23.264;2023-02-23T11:28:51;94195.34;;;15.85;37.86
77041;BME280;65974;42.664;23.264;2023-02-23T11:31:19;94185.88;;;15.61;38.34
77041;BME280;65974;42.664;23.264;2023-02-23T11:33:46;94192.53;;;15.92;38.37
77041;BME280;65974;42.664;23.264;2023-02-23T11:38:46;94188.94;;;15.99;37.64
77041;BME280;65974;42.664;23.264;2023-02-23T11:41:22;94180.75;;;16.22;37.71
77041;BME280;65974;42.664;23.264;2023-02-23T11:43:56;94179.44;;;15.94;37.72
77041;BME280;65974;42.664;23.264;2023-02-23T11:46:23;94174.25;;;16.03;37.63
77041;BME280;65974;42.664;23.264;2023-02-23T11:48:57;94177.13;;;15.77;37.87
77041;BME280;65974;42.664;23.264;2023-02-23T11:51:32;94175.34;;;15.70;38.22
77041;BME280;65974;42.664;23.264;2023-02-23T11:53:58;94178.31;;;15.76;37.85
77041;BME280;65974;42.664;23.264;2023-02-23T11:56:25;94176.69;;;15.78;37.79
77041;BME280;65974;42.664;23.264;2023-02-23T11:58:54;94170.66;;;15.74;37.77
77041;BME280;65974;42.664;23.264;2023-02-23T12:01:42;94176.38;;;15.76;38.00
77041;BME280;65974;42.664;23.264;2023-02-23T12:04:34;94170.44;;;15.85;38.10
77041;BME280;65974;42.664;23.264;2023-02-23T12:12:57;94159.16;;;16.09;37.97
77041;BME280;65974;42.664;23.264;2023-02-23T12:17:59;94151.44;;;16.11;37.47
77041;BME280;65974;42.664;23.264;2023-02-23T12:20:33;94155.38;;;16.07;37.99
77041;BME280;65974;42.664;23.264;2023-02-23T12:23:06;94158.72;;;15.95;37.94
77041;BME280;65974;42.664;23.264;2023-02-23T12:25:39;94155.69;;;15.93;38.18
77041;BME280;65974;42.664;23.264;2023-02-23T12:28:24;94158.88;;;15.88;38.06
77041;BME280;65974;42.664;23.264;2023-02-23T12:33:45;94150.47;;;15.86;37.83
77041;BME280;65974;42.664;23.264;2023-02-23T12:36:26;94146.34;;;15.81;37.64
77041;BME280;65974;42.664;23.264;2023-02-23T12:39:20;94151.47;;;15.76;37.98
77041;BME280;65974;42.664;23.264;2023-02-23T12:45:00;94158.38;;;15.93;38.04
77041;BME280;65974;42.664;23.264;2023-02-23T12:52:53;94147.34;;;15.87;37.91
77041;BME280;65974;42.664;23.264;2023-02-23T12:55:45;94140.66;;;15.95;37.09
77041;BME280;65974;42.664;23.264;2023-02-23T12:58:23;94136.13;;;15.92;37.33
77041;BME280;65974;42.664;23.264;2023-02-23T13:06:56;94136.94;;;15.89;37.53
77041;BME280;65974;42.664;23.264;2023-02-23T13:18:09;94140.31;;;15.77;38.33
77041;BME280;65974;42.664;23.264;2023-02-23T13:20:53;94138.72;;;15.80;38.31
77041;BME280;65974;42.664;23.264;2023-02-23T13:28:48;94134.41;;;15.82;38.67
77041;BME280;65974;42.664;23.264;2023-02-23T13:31:35;94129.56;;;15.77;38.58
77041;BME280;65974;42.664;23.264;2023-02-23T13:34:03;94136.75;;;15.80;39.07
77041;BME280;65974;42.664;23.264;2023-02-23T13:36:31;94129.97;;;15.76;39.21
77041;BME280;65974;42.664;23.264;2023-02-23T13:41:35;94135.59;;;15.81;39.50
77041;BME280;65974;42.664;23.264;2023-02-23T13:47:12;94134.66;;;15.72;39.85
77041;BME280;65974;42.664;23.264;2023-02-23T13:49:53;94138.03;;;15.76;39.66
77041;BME280;65974;42.664;23.264;2023-02-23T13:54:56;94139.09;;;15.78;39.47
77041;BME280;65974;42.664;23.264;2023-02-23T13:57:23;94138.03;;;15.76;39.26
77041;BME280;65974;42.664;23.264;2023-02-23T13:59:51;94142.22;;;15.77;39.44
77041;BME280;65974;42.664;23.264;2023-02-23T14:02:31;94135.75;;;15.74;39.59
77041;BME280;65974;42.664;23.264;2023-02-23T14:07:44;94140.31;;;15.77;39.15
77041;BME280;65974;42.664;23.264;2023-02-23T14:10:38;94141.63;;;15.69;39.03
77041;BME280;65974;42.664;23.264;2023-02-23T14:18:05;94144.25;;;15.53;39.58
77041;BME280;65974;42.664;23.264;2023-02-23T14:47:05;94134.22;;;15.18;42.21
77041;BME280;65974;42.664;23.264;2023-02-23T14:49:34;94124.72;;;15.13;42.25
77041;BME280;65974;42.664;23.264;2023-02-23T14:52:07;94125.28;;;15.05;43.01
77041;BME280;65974;42.664;23.264;2023-02-23T14:54:36;94116.94;;;14.99;43.27
77041;BME280;65974;42.664;23.264;2023-02-23T14:57:05;94107.59;;;14.88;43.86
77041;BME280;65974;42.664;23.264;2023-02-23T14:59:39;94106.56;;;14.82;43.64
77041;BME280;65974;42.664;23.264;2023-02-23T15:02:20;94118.66;;;14.90;42.93
77041;BME280;65974;42.664;23.264;2023-02-23T15:04:45;94108.63;;;14.94;43.03
77041;BME280;65974;42.664;23.264;2023-02-23T15:07:40;94118.00;;;14.86;43.26
77041;BME280;65974;42.664;23.264;2023-02-23T15:10:25;94126.66;;;14.73;43.46
77041;BME280;65974;42.664;23.264;2023-02-23T15:12:52;94122.88;;;14.48;43.58
77041;BME280;65974;42.664;23.264;2023-02-23T15:15:20;94130.97;;;14.44;43.93
77041;BME280;65974;42.664;23.264;2023-02-23T15:17:49;94139.53;;;14.36;44.03
77041;BME280;65974;42.664;23.264;2023-02-23T15:20:17;94140.03;;;14.27;44.31
77041;BME280;65974;42.664;23.264;2023-02-23T15:22:50;94135.88;;;14.23;44.62
77041;BME280;65974;42.664;23.264;2023-02-23T15:25:22;94136.72;;;14.20;44.28
77041;BME280;65974;42.664;23.264;2023-02-23T15:27:52;94151.06;;;14.06;44.72
77041;BME280;65974;42.664;23.264;2023-02-23T15:30:25;94146.69;;;13.92;44.75
77041;BME280;65974;42.664;23.264;2023-02-23T15:33:13;94157.94;;;13.80;44.93
77041;BME280;65974;42.664;23.264;2023-02-23T15:38:37;94166.75;;;13.51;45.55
77041;BME280;65974;42.664;23.264;2023-02-23T15:41:06;94171.41;;;13.47;45.93